This is the latest recevied weather packets stored in our database for station/object OK1VCF-5. If no packets are shown the sender has not sent any weather packets the latest 10 day(s).
| Time | Temp. | Humidity | Pressure | Rain* | Wind** | Luminosity | Snow |
|---|---|---|---|---|---|---|---|
| 1777868998 | 11.11° C | 73% | 1018 hPa | - | - | - | - |
| 1777868892 | 11.11° C | 73% | 1018 hPa | - | - | - | - |
| 1777867991 | 10° C | 75% | 1018 hPa | - | - | - | - |
| 1777867091 | 10° C | 76% | 1018 hPa | - | - | - | - |
| 1777866192 | 10° C | 75% | 1017.8 hPa | - | - | - | - |
| 1777865326 | 10° C | 74% | 1017.9 hPa | - | - | - | - |
| 1777865289 | 10° C | 74% | 1017.9 hPa | - | - | - | - |
| 1777864388 | 10° C | 75% | 1017.8 hPa | - | - | - | - |
| 1777863487 | 10° C | 74% | 1018 hPa | - | - | - | - |
| 1777862587 | 10° C | 73% | 1018 hPa | - | - | - | - |
| 1777860785 | 10° C | 73% | 1018.2 hPa | - | - | - | - |
| 1777859884 | 10.56° C | 70% | 1018 hPa | - | - | - | - |
| 1777858982 | 11.11° C | 68% | 1017.8 hPa | - | - | - | - |
| 1777858084 | 11.11° C | 68% | 1017.4 hPa | - | - | - | - |
| 1777857182 | 11.11° C | 66% | 1017.1 hPa | - | - | - | - |
| 1777855381 | 12.22° C | 63% | 1017 hPa | - | - | - | - |
| 1777854479 | 12.22° C | 62% | 1016.9 hPa | - | - | - | - |
| 1777853579 | 12.78° C | 62% | 1016.9 hPa | - | - | - | - |
| 1777852679 | 13.33° C | 58% | 1016.9 hPa | - | - | - | - |
| 1777852678 | 13.33° C | - | 1016.9 hPa | - | - | - | - |
| 1777851924 | 14.44° C | 55% | 1016.8 hPa | - | - | - | - |
| 1777851777 | 14.44° C | 55% | 1016.8 hPa | - | - | - | - |
| 1777850877 | 14.44° C | 56% | 1016.8 hPa | - | - | - | - |
| 1777849974 | 14.44° C | 54% | 1016.8 hPa | - | - | - | - |
| 1777849075 | 15.56° C | 51% | 1016.8 hPa | - | - | - | - |
* Rain since midnight (hover to see other rain measurements)
** Current wind speed in m/s (hover to see current wind gust speed)